Time;durP1;ratioP1;P1;durP2;ratioP2;P2;SDS_P1;SDS_P2;PMS_P1;PMS_P2;Temp;Humidity;BMP_temperature;BMP_pressure;BME280_temperature;BME280_humidity;BME280_pressure;Samples;Min_cycle;Max_cycle;Signal;HPM_P1;HPM_P2
2023/09/10 00:00:57;;;;;;;30.47;19.73;;;;;;;17.06;100.00;100644.63;4980092;28;20200;-73
2023/09/10 00:03:23;;;;;;;29.23;20.30;;;;;;;17.02;100.00;100642.88;4990891;28;20238;-73
2023/09/10 00:05:50;;;;;;;30.30;20.13;;;;;;;16.96;100.00;100637.59;4991913;28;20205;-73
2023/09/10 00:08:16;;;;;;;32.43;22.07;;;;;;;16.97;100.00;100650.06;4985589;28;21434;-73
2023/09/10 00:10:43;;;;;;;29.40;21.30;;;;;;;16.91;100.00;100637.63;4983465;28;20652;-73
2023/09/10 00:13:10;;;;;;;33.30;21.70;;;;;;;16.89;100.00;100640.31;4987866;28;20279;-74
2023/09/10 00:15:36;;;;;;;29.83;20.90;;;;;;;16.88;100.00;100635.88;4988165;28;20452;-73
2023/09/10 00:18:03;;;;;;;32.37;20.33;;;;;;;16.85;100.00;100638.56;5010349;28;20203;-73
2023/09/10 00:20:30;;;;;;;30.83;20.27;;;;;;;16.80;100.00;100636.81;4985963;28;20205;-73
2023/09/10 00:22:56;;;;;;;28.07;19.20;;;;;;;16.84;100.00;100638.59;5003193;28;20207;-73
2023/09/10 00:25:23;;;;;;;31.83;20.47;;;;;;;16.86;100.00;100640.34;4983367;28;20778;-74
2023/09/10 00:27:50;;;;;;;24.90;17.67;;;;;;;16.91;100.00;100635.84;4987147;28;20291;-73
2023/09/10 00:30:16;;;;;;;23.23;16.60;;;;;;;17.01;100.00;100633.06;4989406;28;20579;-73
2023/09/10 00:32:43;;;;;;;26.73;18.77;;;;;;;17.01;100.00;100639.31;4988643;28;20205;-73
2023/09/10 00:35:09;;;;;;;22.23;17.40;;;;;;;16.98;100.00;100634.00;4988271;28;20271;-73
2023/09/10 00:37:36;;;;;;;25.50;17.30;;;;;;;16.91;100.00;100633.16;4985798;28;20739;-73
2023/09/10 00:40:04;;;;;;;23.97;18.17;;;;;;;16.87;100.00;100628.75;4988552;28;20211;-74
2023/09/10 00:42:30;;;;;;;24.93;16.97;;;;;;;16.84;100.00;100633.25;4989835;28;20228;-73
2023/09/10 00:44:57;;;;;;;24.07;17.63;;;;;;;16.90;100.00;100631.38;4989889;28;20331;-73
2023/09/10 00:47:23;;;;;;;23.47;17.17;;;;;;;16.83;100.00;100634.13;4991393;28;20292;-73
2023/09/10 00:49:50;;;;;;;26.70;17.33;;;;;;;16.77;100.00;100632.38;4990399;28;20200;-73
2023/09/10 00:52:17;;;;;;;23.90;16.90;;;;;;;16.72;100.00;100634.19;4988245;28;20591;-74
2023/09/10 00:54:44;;;;;;;23.60;16.33;;;;;;;16.75;100.00;100634.16;4987357;28;20220;-73
2023/09/10 00:57:11;;;;;;;20.43;15.83;;;;;;;16.70;100.00;100624.41;4991570;28;20918;-73
2023/09/10 00:59:38;;;;;;;22.93;17.13;;;;;;;16.68;100.00;100629.78;4997632;28;20284;-73
2023/09/10 01:02:04;;;;;;;23.57;16.63;;;;;;;16.61;100.00;100633.38;4992180;28;20224;-73
2023/09/10 01:04:31;;;;;;;23.20;16.60;;;;;;;16.58;100.00;100636.94;4990576;28;20608;-73
2023/09/10 01:06:57;;;;;;;22.37;16.23;;;;;;;16.53;100.00;100645.91;4985483;28;20205;-73
2023/09/10 01:09:23;;;;;;;22.97;17.43;;;;;;;16.51;100.00;100637.00;4981400;28;20215;-73
2023/09/10 01:12:38;;;;;;;22.50;16.07;;;;;;;16.49;100.00;100644.16;4984148;28;20211;-73
2023/09/10 01:15:26;;;;;;;22.30;15.63;;;;;;;16.45;100.00;100639.72;4986785;28;20216;-74
2023/09/10 01:18:08;;;;;;;24.33;16.70;;;;;;;16.43;100.00;100638.84;4985402;28;20250;-74
2023/09/10 01:20:53;;;;;;;24.73;17.43;;;;;;;16.46;100.00;100636.16;4986679;28;20212;-73
2023/09/10 01:23:36;;;;;;;21.70;16.27;;;;;;;16.40;100.00;100642.41;4992743;28;20224;-73
2023/09/10 01:26:03;;;;;;;20.97;15.63;;;;;;;16.33;100.00;100639.78;4986094;28;20896;-73
2023/09/10 01:28:29;;;;;;;20.00;15.73;;;;;;;16.27;100.00;100638.94;4987974;28;20348;-74
2023/09/10 01:30:56;;;;;;;23.23;15.63;;;;;;;16.25;100.00;100642.50;4985364;28;20201;-73
2023/09/10 01:33:36;;;;;;;22.87;16.97;;;;;;;16.23;100.00;100639.84;4982759;28;21174;-73
2023/09/10 01:36:14;;;;;;;23.60;15.63;;;;;;;16.19;100.00;100632.75;4987785;28;20287;-73
2023/09/10 01:39:01;;;;;;;23.13;16.83;;;;;;;16.17;100.00;100633.66;4992762;28;20677;-73
2023/09/10 01:41:30;;;;;;;23.83;17.20;;;;;;;16.14;100.00;100641.69;4991064;28;20681;-73
2023/09/10 01:43:59;;;;;;;20.93;15.60;;;;;;;16.09;100.00;100633.69;4991085;28;20228;-73
2023/09/10 01:46:27;;;;;;;23.00;16.87;;;;;;;16.10;100.00;100638.16;4986619;28;20708;-73
2023/09/10 01:48:54;;;;;;;23.33;16.47;;;;;;;16.09;100.00;100636.38;4997919;28;20203;-73
2023/09/10 01:51:20;;;;;;;20.43;16.47;;;;;;;16.12;100.00;100638.13;4985190;28;20205;-73
2023/09/10 01:53:47;;;;;;;22.60;15.63;;;;;;;16.06;100.00;100630.16;4988151;28;20224;-73
2023/09/10 01:56:13;;;;;;;19.87;14.47;;;;;;;15.99;100.00;100632.84;4984437;28;20208;-73
2023/09/10 01:58:40;;;;;;;23.27;15.73;;;;;;;15.97;100.00;100629.28;4985643;28;20215;-73
2023/09/10 02:01:06;;;;;;;20.27;15.63;;;;;;;16.07;100.00;100635.50;4998677;28;20251;-73
2023/09/10 02:03:33;;;;;;;22.47;16.33;;;;;;;16.03;100.00;100630.19;4987753;28;20270;-73
2023/09/10 02:06:03;;;;;;;20.70;15.27;;;;;;;15.97;100.00;100631.06;4985493;28;20286;-73
2023/09/10 02:08:30;;;;;;;21.80;14.80;;;;;;;15.89;100.00;100623.09;4982268;28;20200;-73
2023/09/10 02:10:56;;;;;;;21.83;16.00;;;;;;;15.91;100.00;100626.63;4986324;28;20675;-73
2023/09/10 02:13:23;;;;;;;18.67;14.87;;;;;;;15.90;100.00;100626.66;4986103;28;20220;-73
2023/09/10 02:15:50;;;;;;;24.33;16.67;;;;;;;15.96;100.00;100632.84;4989364;28;20668;-73
2023/09/10 02:18:16;;;;;;;23.93;16.17;;;;;;;15.91;100.00;100626.63;4991032;28;20204;-73
2023/09/10 02:20:43;;;;;;;21.17;15.70;;;;;;;15.87;100.00;100632.91;4991193;28;20247;-73
2023/09/10 02:25:42;;;;;;;21.67;16.17;;;;;;;15.97;100.00;100636.41;4987024;28;20224;-73
2023/09/10 02:28:09;;;;;;;23.27;16.03;;;;;;;15.94;100.00;100634.63;4990571;28;20209;-73
2023/09/10 02:30:35;;;;;;;22.87;16.13;;;;;;;15.87;100.00;100632.00;4989718;28;20204;-73
2023/09/10 02:33:03;;;;;;;20.63;15.80;;;;;;;15.83;100.00;100636.47;4989171;28;20196;-73
2023/09/10 02:35:29;;;;;;;22.47;16.17;;;;;;;15.81;100.00;100624.91;4979150;28;20228;-73
2023/09/10 02:37:56;;;;;;;22.10;16.07;;;;;;;15.83;100.00;100624.91;4987884;28;20205;-73
2023/09/10 02:40:22;;;;;;;21.97;16.03;;;;;;;15.81;100.00;100624.03;4988234;28;20259;-74
2023/09/10 02:42:48;;;;;;;20.47;14.97;;;;;;;15.73;100.00;100628.50;4993845;28;20197;-74
2023/09/10 02:45:15;;;;;;;23.50;15.13;;;;;;;15.67;100.00;100629.44;4998886;28;20251;-73
2023/09/10 02:47:42;;;;;;;20.53;15.30;;;;;;;15.69;100.00;100624.09;4985557;28;21362;-74
2023/09/10 02:50:09;;;;;;;21.47;15.63;;;;;;;15.63;100.00;100631.22;4992690;28;20296;-74
2023/09/10 02:52:36;;;;;;;18.37;14.47;;;;;;;15.59;100.00;100633.88;4990160;28;20213;-73
2023/09/10 02:55:03;;;;;;;19.47;14.30;;;;;;;15.53;100.00;100641.88;5004187;28;20659;-73
2023/09/10 02:57:29;;;;;;;21.13;16.40;;;;;;;15.46;100.00;100641.00;4987512;28;20197;-73
2023/09/10 02:59:56;;;;;;;19.93;14.97;;;;;;;15.43;100.00;100635.69;4993669;28;20201;-73
2023/09/10 03:02:22;;;;;;;19.30;14.77;;;;;;;15.40;100.00;100630.34;4985433;28;20280;-73
2023/09/10 03:04:49;;;;;;;20.77;15.00;;;;;;;15.39;100.00;100636.59;4985393;28;20225;-73
2023/09/10 03:07:16;;;;;;;21.57;14.60;;;;;;;15.35;100.00;100630.38;4982637;28;20232;-74
2023/09/10 03:09:42;;;;;;;21.07;14.40;;;;;;;15.36;100.00;100628.59;4986966;28;20616;-74
2023/09/10 03:12:22;;;;;;;19.20;14.47;;;;;;;15.32;100.00;100635.72;4988348;28;20292;-73
2023/09/10 03:14:49;;;;;;;20.33;14.20;;;;;;;15.30;100.00;100644.63;4992031;28;20567;-73
2023/09/10 03:17:17;;;;;;;21.73;15.47;;;;;;;15.28;100.00;100641.06;4987363;28;20217;-73
2023/09/10 03:19:44;;;;;;;20.77;15.67;;;;;;;15.27;100.00;100645.53;4988436;28;20296;-73
2023/09/10 03:22:11;;;;;;;23.37;15.50;;;;;;;15.37;100.00;100646.38;4988078;28;20235;-73
2023/09/10 03:24:38;;;;;;;21.03;15.47;;;;;;;15.44;100.00;100649.91;4984797;28;20232;-73
2023/09/10 03:27:05;;;;;;;19.77;14.90;;;;;;;15.33;100.00;100642.84;4986455;28;20657;-74
2023/09/10 03:29:35;;;;;;;20.33;14.17;;;;;;;15.23;100.00;100646.41;4988370;28;20212;-75
2023/09/10 03:32:04;;;;;;;20.67;14.80;;;;;;;15.19;100.00;100643.72;4985919;28;20211;-73
2023/09/10 03:34:31;;;;;;;21.07;14.63;;;;;;;15.15;100.00;100640.16;4983210;28;20643;-74
2023/09/10 03:36:58;;;;;;;19.07;13.87;;;;;;;15.13;100.00;100636.63;4985005;28;20209;-74
2023/09/10 03:39:25;;;;;;;20.00;15.23;;;;;;;15.26;100.00;100634.84;4987133;28;20208;-73
2023/09/10 03:41:52;;;;;;;19.63;14.60;;;;;;;15.28;100.00;100641.06;4987041;28;20696;-73
2023/09/10 03:44:19;;;;;;;21.57;15.63;;;;;;;15.31;100.00;100641.94;4986270;28;20259;-73
2023/09/10 03:46:46;;;;;;;20.80;14.63;;;;;;;15.31;100.00;100643.72;4984127;28;20205;-75
2023/09/10 03:49:13;;;;;;;20.27;15.43;;;;;;;15.29;100.00;100638.41;4986456;28;20649;-73
2023/09/10 03:51:40;;;;;;;20.03;14.93;;;;;;;15.24;100.00;100640.19;4990192;28;20673;-73
2023/09/10 03:54:11;;;;;;;21.50;15.17;;;;;;;15.36;100.00;100644.59;4984521;28;20229;-75
2023/09/10 03:56:39;;;;;;;21.13;15.57;;;;;;;15.38;100.00;100641.94;5000241;28;20314;-73
2023/09/10 03:59:06;;;;;;;19.30;14.97;;;;;;;15.34;100.00;100641.94;5003465;28;20228;-73
2023/09/10 04:01:34;;;;;;;20.47;14.93;;;;;;;15.25;100.00;100641.97;4986942;28;20213;-73
2023/09/10 04:04:01;;;;;;;18.73;14.63;;;;;;;15.15;100.00;100633.94;4994189;28;20224;-75
2023/09/10 04:06:30;;;;;;;19.47;14.67;;;;;;;15.15;100.00;100644.63;4988650;28;20319;-73
2023/09/10 04:08:57;;;;;;;20.60;14.73;;;;;;;15.10;100.00;100643.75;5002477;28;20328;-73
2023/09/10 04:11:23;;;;;;;20.77;14.53;;;;;;;15.04;100.00;100641.97;4991160;28;20200;-74
2023/09/10 04:13:49;;;;;;;21.30;15.47;;;;;;;15.05;100.00;100649.97;4994954;28;20294;-73
2023/09/10 04:16:16;;;;;;;19.70;15.17;;;;;;;15.08;100.00;100656.19;4988740;28;20201;-73
2023/09/10 04:18:43;;;;;;;18.07;14.60;;;;;;;15.02;100.00;100655.31;4991713;28;20676;-74
2023/09/10 04:21:13;;;;;;;19.20;14.27;;;;;;;14.94;100.00;100654.44;4993458;28;20201;-73
2023/09/10 04:23:39;;;;;;;18.47;13.90;;;;;;;14.86;100.00;100650.88;4994265;28;20310;-75
2023/09/10 04:26:06;;;;;;;21.80;14.33;;;;;;;14.82;100.00;100651.78;4988689;28;20932;-74
2023/09/10 04:28:32;;;;;;;18.60;13.57;;;;;;;14.80;100.00;100655.28;4991315;28;20660;-73
2023/09/10 04:30:58;;;;;;;19.53;15.00;;;;;;;14.75;100.00;100644.63;4992828;28;20204;-75
2023/09/10 04:33:25;;;;;;;19.47;13.40;;;;;;;14.74;100.00;100646.41;4988657;28;20211;-74
2023/09/10 04:35:53;;;;;;;17.30;13.50;;;;;;;14.79;100.00;100659.75;4986722;28;20201;-73
2023/09/10 04:38:20;;;;;;;19.03;14.83;;;;;;;14.82;100.00;100662.44;4990341;28;20299;-73
2023/09/10 04:40:47;;;;;;;19.67;14.30;;;;;;;14.80;100.00;100656.19;4987815;28;20572;-74
2023/09/10 04:43:13;;;;;;;18.77;14.37;;;;;;;14.76;100.00;100657.06;4992847;28;20204;-73
2023/09/10 04:45:39;;;;;;;21.50;15.73;;;;;;;14.96;100.00;100663.31;4993753;28;20212;-73
2023/09/10 04:48:06;;;;;;;20.90;15.70;;;;;;;15.11;100.00;100662.41;4991664;28;20296;-73
2023/09/10 04:50:32;;;;;;;23.37;15.57;;;;;;;15.04;100.00;100661.53;4992634;28;20267;-73
2023/09/10 04:53:01;;;;;;;21.37;14.80;;;;;;;14.94;100.00;100665.09;4988837;28;20203;-74
2023/09/10 04:55:27;;;;;;;23.27;14.97;;;;;;;14.98;100.00;100669.53;4989583;28;20220;-73
2023/09/10 04:57:54;;;;;;;19.10;14.20;;;;;;;14.94;100.00;100670.44;4997333;28;20200;-73
2023/09/10 05:00:20;;;;;;;19.80;14.20;;;;;;;14.89;100.00;100671.31;4991876;28;20204;-74
2023/09/10 05:02:47;;;;;;;19.93;15.13;;;;;;;14.89;100.00;100664.22;4988476;28;20590;-73
2023/09/10 05:05:14;;;;;;;23.40;15.60;;;;;;;15.00;100.00;100673.09;4989684;28;20267;-73
2023/09/10 05:07:41;;;;;;;23.97;15.73;;;;;;;15.13;100.00;100678.41;4988919;28;20286;-72
2023/09/10 05:10:09;;;;;;;21.23;15.13;;;;;;;15.16;100.00;100687.31;4997021;28;20203;-74
2023/09/10 05:12:36;;;;;;;20.10;15.43;;;;;;;15.09;100.00;100692.66;4992331;28;20252;-75
2023/09/10 05:15:03;;;;;;;17.70;13.80;;;;;;;15.04;100.00;100689.97;4987452;28;20220;-74
2023/09/10 05:17:29;;;;;;;22.33;15.37;;;;;;;15.16;100.00;100694.41;4986319;28;20216;-74
2023/09/10 05:19:55;;;;;;;20.87;15.30;;;;;;;15.19;100.00;100699.75;4988870;28;20624;-73
2023/09/10 05:22:22;;;;;;;21.57;15.47;;;;;;;15.14;100.00;100702.44;4991977;28;20296;-75
2023/09/10 05:24:48;;;;;;;19.53;14.20;;;;;;;15.14;100.00;100705.09;4995234;28;20225;-73
2023/09/10 05:27:15;;;;;;;23.73;15.43;;;;;;;15.27;100.00;100700.66;4986702;28;20201;-72
2023/09/10 05:29:41;;;;;;;20.13;15.07;;;;;;;15.40;100.00;100699.75;4984265;28;20209;-74
2023/09/10 05:32:07;;;;;;;19.37;14.23;;;;;;;15.48;100.00;100702.41;4984820;28;20201;-74
2023/09/10 05:34:35;;;;;;;21.23;14.37;;;;;;;15.48;100.00;100702.41;4989146;28;20252;-73
2023/09/10 05:37:01;;;;;;;22.97;15.40;;;;;;;15.46;100.00;100702.41;4983885;28;20628;-73
2023/09/10 05:39:28;;;;;;;20.57;13.87;;;;;;;15.49;100.00;100709.53;4987696;28;20227;-73
2023/09/10 05:41:54;;;;;;;25.20;15.13;;;;;;;15.53;100.00;100698.81;4986307;28;20385;-74
2023/09/10 05:44:20;;;;;;;21.40;14.80;;;;;;;15.59;100.00;100701.50;4989359;28;20221;-73
2023/09/10 05:46:50;;;;;;;19.73;14.10;;;;;;;15.64;100.00;100699.75;4999496;28;20221;-73
2023/09/10 05:49:16;;;;;;;20.37;14.30;;;;;;;15.71;100.00;100707.75;4985396;28;20205;-74
2023/09/10 05:51:42;;;;;;;23.00;14.77;;;;;;;15.76;100.00;100698.81;4987989;28;20220;-76
2023/09/10 05:54:09;;;;;;;21.77;15.47;;;;;;;15.87;100.00;100707.69;4988451;28;20220;-73
2023/09/10 05:56:35;;;;;;;21.70;15.70;;;;;;;16.05;100.00;100713.88;4985839;28;20292;-73
2023/09/10 05:59:01;;;;;;;24.07;14.63;;;;;;;16.16;100.00;100706.69;4988345;28;20209;-72
2023/09/10 06:01:28;;;;;;;25.70;16.60;;;;;;;16.22;100.00;100717.34;4987437;28;20295;-73
2023/09/10 06:03:54;;;;;;;21.07;15.20;;;;;;;16.30;100.00;100715.53;4985922;28;20385;-73
2023/09/10 06:06:21;;;;;;;17.60;13.43;;;;;;;16.33;100.00;100715.50;4982769;28;20218;-74
2023/09/10 06:08:47;;;;;;;21.53;14.77;;;;;;;16.42;100.00;100710.16;5002459;28;20672;-73
2023/09/10 06:11:14;;;;;;;19.83;13.87;;;;;;;16.49;100.00;100719.00;4987168;28;20664;-73
2023/09/10 06:13:40;;;;;;;18.50;13.87;;;;;;;16.55;100.00;100710.97;4988618;28;20639;-73
2023/09/10 06:16:07;;;;;;;20.90;13.80;;;;;;;16.72;100.00;100729.59;4979079;28;20201;-73
2023/09/10 06:18:33;;;;;;;20.50;13.57;;;;;;;16.78;100.00;100722.41;5002415;28;20255;-74
2023/09/10 06:20:59;;;;;;;18.07;13.13;;;;;;;16.92;100.00;100714.31;4985672;28;20213;-73
2023/09/10 06:23:26;;;;;;;20.70;14.17;;;;;;;17.07;100.00;100732.03;4988934;28;20216;-75
2023/09/10 06:25:52;;;;;;;19.93;13.10;;;;;;;17.12;100.00;100715.03;4983953;28;20216;-74
2023/09/10 06:28:20;;;;;;;21.43;14.00;;;;;;;17.21;100.00;100730.13;4988183;28;20213;-73
2023/09/10 06:30:46;;;;;;;21.50;13.93;;;;;;;17.21;100.00;100712.31;5001716;28;20216;-74
2023/09/10 06:33:13;;;;;;;18.83;13.80;;;;;;;17.36;100.00;100724.66;4979044;28;20284;-77
2023/09/10 06:35:39;;;;;;;20.63;14.17;;;;;;;17.43;100.00;100728.16;4983004;28;20316;-76
2023/09/10 06:38:06;;;;;;;23.57;13.37;;;;;;;17.51;100.00;100732.53;4987433;28;20201;-74
2023/09/10 06:40:36;;;;;;;16.30;12.60;;;;;;;17.62;100.00;100731.56;4986091;28;20244;-73
2023/09/10 06:43:08;;;;;;;18.17;12.87;;;;;;;17.69;100.00;100725.28;4986445;28;20209;-74
2023/09/10 06:45:34;;;;;;;17.67;12.67;;;;;;;17.79;100.00;100726.94;4985622;28;20232;-73
2023/09/10 06:48:01;;;;;;;18.63;12.37;;;;;;;17.93;100.00;100737.50;4986915;28;20693;-74
2023/09/10 06:50:27;;;;;;;14.17;10.77;;;;;;;18.06;100.00;100731.13;4986438;28;20212;-74
2023/09/10 06:52:54;;;;;;;20.37;11.20;;;;;;;18.15;100.00;100731.91;4985637;28;20197;-74
2023/09/10 06:55:20;;;;;;;15.47;11.30;;;;;;;18.29;100.00;100734.41;4985955;28;20216;-73
2023/09/10 06:57:47;;;;;;;18.17;11.43;;;;;;;18.40;100.00;100740.50;4987691;28;20692;-73
2023/09/10 07:00:13;;;;;;;15.03;10.70;;;;;;;18.52;100.00;100728.75;5005419;28;20664;-73
2023/09/10 07:02:40;;;;;;;14.93;11.10;;;;;;;18.67;100.00;100738.41;4982538;28;20669;-74
2023/09/10 07:05:07;;;;;;;17.03;11.87;;;;;;;18.81;100.00;100743.56;4986325;28;20742;-74
2023/09/10 07:07:33;;;;;;;15.85;10.10;;;;;;;18.91;100.00;100737.16;4988446;28;20291;-73
2023/09/10 07:10:00;;;;;;;19.17;11.10;;;;;;;19.07;100.00;100742.25;4983085;28;20204;-73
2023/09/10 07:12:26;;;;;;;13.37;10.10;;;;;;;19.41;100.00;100739.03;4984928;28;20213;-75
2023/09/10 07:14:53;;;;;;;14.90;10.17;;;;;;;20.03;100.00;100754.06;4982745;28;20749;-75
2023/09/10 07:17:19;;;;;;;16.30;10.73;;;;;;;20.56;100.00;100743.13;4985951;28;20605;-73
2023/09/10 07:19:45;;;;;;;17.05;10.80;;;;;;;21.11;100.00;100749.91;4985442;28;20201;-73
2023/09/10 07:22:13;;;;;;;14.85;10.50;;;;;;;21.73;100.00;100737.59;4988310;28;20204;-73
2023/09/10 07:24:40;;;;;;;17.30;10.20;;;;;;;22.18;100.00;100740.84;5000154;28;20232;-73
2023/09/10 07:27:06;;;;;;;16.48;11.13;;;;;;;22.28;100.00;100744.16;4986255;28;20228;-73
2023/09/10 07:29:33;;;;;;;18.13;10.82;;;;;;;22.15;100.00;100740.06;4986503;28;20208;-74
2023/09/10 07:31:59;;;;;;;16.17;11.50;;;;;;;21.82;100.00;100734.66;4985525;28;20205;-75
2023/09/10 07:34:26;;;;;;;15.40;10.05;;;;;;;21.81;100.00;100743.66;4985862;28;20312;-73
2023/09/10 07:36:52;;;;;;;20.00;10.48;;;;;;;21.89;100.00;100743.44;4985833;28;20573;-73
2023/09/10 07:39:19;;;;;;;18.00;10.25;;;;;;;21.70;100.00;100734.97;4982111;28;20643;-74
2023/09/10 07:41:45;;;;;;;16.88;10.50;;;;;;;21.81;100.00;100738.25;4985001;28;20208;-76
2023/09/10 07:44:12;;;;;;;14.40;10.57;;;;;;;21.61;100.00;100750.50;4982307;28;20704;-74
2023/09/10 07:46:39;;;;;;;15.57;10.90;;;;;;;21.49;100.00;100746.31;4987316;28;20227;-73
2023/09/10 07:49:05;;;;;;;18.38;10.30;;;;;;;21.57;100.00;100753.28;4987012;28;20239;-77
2023/09/10 07:51:32;;;;;;;15.88;10.45;;;;;;;21.61;100.00;100755.88;4985479;28;20207;-74
2023/09/10 07:53:58;;;;;;;15.63;11.02;;;;;;;21.59;100.00;100754.13;4981898;28;20320;-76
2023/09/10 07:56:24;;;;;;;15.73;10.40;;;;;;;21.59;100.00;100761.31;4988184;28;20203;-75
2023/09/10 07:58:51;;;;;;;15.35;10.45;;;;;;;21.71;100.00;100752.03;4998792;28;20243;-75
2023/09/10 08:01:18;;;;;;;14.05;11.02;;;;;;;21.76;100.00;100753.69;4979609;28;20208;-75
2023/09/10 08:03:44;;;;;;;13.48;9.63;;;;;;;21.85;100.00;100739.94;4983629;28;20227;-76
2023/09/10 08:06:11;;;;;;;18.92;10.57;;;;;;;21.93;100.00;100750.53;4987149;28;20332;-74
2023/09/10 08:08:38;;;;;;;14.63;10.25;;;;;;;22.08;100.00;100755.53;4985974;28;20205;-74
2023/09/10 08:11:04;;;;;;;18.85;11.45;;;;;;;22.07;100.00;100742.09;4989916;28;20201;-72
2023/09/10 08:13:31;;;;;;;18.88;12.10;;;;;;;22.17;100.00;100746.28;4982443;28;20305;-72
2023/09/10 08:15:58;;;;;;;16.02;11.15;;;;;;;22.23;100.00;100754.22;4989422;28;20205;-72
2023/09/10 08:18:24;;;;;;;18.08;11.75;;;;;;;22.30;100.00;100745.00;4990268;28;20211;-73
2023/09/10 08:20:51;;;;;;;14.73;10.57;;;;;;;22.56;100.00;100748.75;4988187;28;20689;-76
2023/09/10 08:23:17;;;;;;;16.10;10.15;;;;;;;22.77;100.00;100745.38;4984359;28;20209;-74
2023/09/10 08:25:44;;;;;;;18.05;11.15;;;;;;;22.87;100.00;100754.16;4985392;28;20226;-74
2023/09/10 08:28:10;;;;;;;16.85;11.13;;;;;;;22.88;100.00;100742.41;5003022;28;20665;-76
2023/09/10 08:30:37;;;;;;;17.08;10.32;;;;;;;23.10;100.00;100748.88;4986365;28;20201;-74
2023/09/10 08:33:06;;;;;;;14.68;11.32;;;;;;;23.07;100.00;100754.38;4999322;28;20611;-77
2023/09/10 08:35:45;;;;;;;14.88;11.05;;;;;;;23.23;100.00;100749.38;5001203;28;20287;-76
2023/09/10 08:38:12;;;;;;;15.02;10.35;;;;;;;23.45;100.00;100745.00;4987394;28;20193;-75
2023/09/10 08:40:45;;;;;;;16.65;11.23;;;;;;;23.72;100.00;100744.09;4991389;28;20205;-74
2023/09/10 08:43:15;;;;;;;16.73;12.18;;;;;;;23.78;100.00;100739.41;4985072;28;20293;-77
2023/09/10 08:45:42;;;;;;;16.88;9.95;;;;;;;23.96;100.00;100744.16;4985010;28;20193;-74
2023/09/10 08:48:09;;;;;;;19.60;11.65;;;;;;;24.07;100.00;100741.97;4988672;28;20205;-77
2023/09/10 08:50:36;;;;;;;16.08;10.38;;;;;;;24.30;100.00;100742.00;4987897;28;20233;-73
2023/09/10 08:53:06;;;;;;;15.90;11.57;;;;;;;24.40;100.00;100738.94;4986656;28;20224;-76
2023/09/10 08:55:35;;;;;;;14.38;11.00;;;;;;;24.46;100.00;100739.63;4988542;28;20221;-77
2023/09/10 08:58:02;;;;;;;15.10;10.30;;;;;;;24.66;100.00;100742.44;4989410;28;20197;-75
2023/09/10 09:00:30;;;;;;;19.08;12.73;;;;;;;24.83;100.00;100741.78;4987703;28;20224;-78
2023/09/10 09:02:56;;;;;;;19.88;12.73;;;;;;;24.83;100.00;100741.78;4981714;28;20231;-80
2023/09/10 09:05:27;;;;;;;14.77;10.80;;;;;;;24.92;100.00;100738.69;4987359;28;20750;-73
2023/09/10 09:07:55;;;;;;;19.08;11.02;;;;;;;25.14;100.00;100738.72;4988067;28;20219;-74
2023/09/10 09:10:27;;;;;;;17.92;12.10;;;;;;;25.30;100.00;100739.00;4988749;28;20280;-73
2023/09/10 09:12:58;;;;;;;22.60;11.20;;;;;;;25.53;100.00;100735.28;4983995;28;20673;-75
2023/09/10 09:15:28;;;;;;;15.98;11.73;;;;;;;25.68;100.00;100737.41;4985707;28;20247;-73
2023/09/10 09:17:55;;;;;;;18.48;11.48;;;;;;;25.79;100.00;100732.38;4990341;28;20635;-76
2023/09/10 09:20:23;;;;;;;18.42;13.13;;;;;;;26.00;100.00;100730.53;4987837;28;20244;-76
2023/09/10 09:22:54;;;;;;;20.00;12.70;;;;;;;26.05;100.00;100733.06;4988632;28;20620;-77
2023/09/10 09:25:20;;;;;;;17.02;13.35;;;;;;;26.08;100.00;100731.09;4987083;28;20235;-76
2023/09/10 09:27:49;;;;;;;21.67;13.00;;;;;;;26.24;100.00;100729.44;5002543;28;20227;-75
2023/09/10 09:30:15;;;;;;;17.60;10.80;;;;;;;26.36;100.00;100728.00;4982486;28;20720;-73
2023/09/10 09:32:45;;;;;;;16.08;10.85;;;;;;;26.43;100.00;100724.09;4987495;28;20201;-70
2023/09/10 09:35:12;;;;;;;14.43;9.77;;;;;;;26.60;100.00;100725.09;4984660;28;20251;-73
2023/09/10 09:37:39;;;;;;;13.07;9.18;;;;;;;26.81;99.47;100726.78;4988857;28;20216;-72
2023/09/10 09:40:09;;;;;;;15.80;11.60;;;;;;;26.76;92.35;100717.97;4988561;28;20243;-72
2023/09/10 09:42:37;;;;;;;18.23;10.90;;;;;;;26.91;88.46;100722.69;4985979;28;20292;-72
2023/09/10 09:45:04;;;;;;;13.00;9.48;;;;;;;27.00;90.68;100721.38;4985387;28;20232;-73
2023/09/10 09:47:31;;;;;;;15.38;9.63;;;;;;;27.09;85.83;100710.91;4984399;28;20307;-71
2023/09/10 09:49:58;;;;;;;15.45;9.52;;;;;;;27.22;84.26;100707.56;4991558;28;20221;-75
2023/09/10 09:52:25;;;;;;;13.73;9.25;;;;;;;27.35;88.83;100704.19;4991417;28;22154;-75
2023/09/10 09:54:51;;;;;;;14.88;9.10;;;;;;;27.48;87.21;100694.41;4987592;28;20236;-72
2023/09/10 09:57:17;;;;;;;13.35;9.25;;;;;;;27.66;86.18;100700.78;4990780;28;20193;-73
2023/09/10 09:59:44;;;;;;;11.90;9.07;;;;;;;27.70;84.10;100693.34;4990407;28;20699;-72
2023/09/10 10:02:15;;;;;;;14.82;9.15;;;;;;;27.75;77.41;100692.13;4990895;28;20561;-76
2023/09/10 10:04:43;;;;;;;12.35;8.63;;;;;;;27.94;74.24;100704.75;4989171;28;20224;-71
2023/09/10 10:07:12;;;;;;;12.45;9.05;;;;;;;27.93;69.60;100695.72;4987550;28;20236;-72
2023/09/10 10:09:51;;;;;;;15.32;9.70;;;;;;;27.98;69.23;100692.72;4988049;28;20205;-73
2023/09/10 10:12:19;;;;;;;14.60;8.80;;;;;;;28.14;68.89;100690.09;4988347;28;20201;-71
2023/09/10 10:14:47;;;;;;;12.52;9.00;;;;;;;28.19;66.61;100691.59;4982521;28;20283;-72
2023/09/10 10:17:15;;;;;;;13.20;8.52;;;;;;;28.21;64.69;100681.50;4984546;28;20571;-75
2023/09/10 10:19:42;;;;;;;12.25;8.45;;;;;;;28.27;64.22;100672.13;4988392;28;20283;-77
2023/09/10 10:22:09;;;;;;;13.27;8.60;;;;;;;28.23;62.84;100676.84;4987479;28;20235;-73
2023/09/10 10:24:36;;;;;;;11.93;8.32;;;;;;;28.34;63.72;100666.25;5001856;28;20645;-74
2023/09/10 10:27:04;;;;;;;13.27;8.20;;;;;;;28.50;64.36;100668.13;4987440;28;20239;-73
2023/09/10 10:29:32;;;;;;;10.20;8.05;;;;;;;28.66;63.52;100660.81;4986602;28;20646;-72
2023/09/10 10:32:10;;;;;;;14.88;8.10;;;;;;;28.85;62.68;100663.44;4986754;28;20673;-74
2023/09/10 10:34:40;;;;;;;12.63;8.30;;;;;;;28.99;60.84;100664.38;4986582;28;20312;-72
2023/09/10 10:37:15;;;;;;;13.45;8.05;;;;;;;29.13;59.70;100665.41;4987009;28;20219;-72
2023/09/10 10:40:11;;;;;;;10.05;7.88;;;;;;;29.14;60.46;100653.50;4987104;28;20207;-74
2023/09/10 10:43:03;;;;;;;11.98;7.85;;;;;;;29.27;59.54;100644.53;4980606;28;20221;-71
2023/09/10 10:45:30;;;;;;;9.30;7.72;;;;;;;29.42;59.25;100652.75;4985577;28;20600;-73
2023/09/10 10:48:06;;;;;;;10.80;7.57;;;;;;;29.48;59.21;100655.13;4985878;28;20244;-74
2023/09/10 10:50:35;;;;;;;17.90;8.60;;;;;;;29.46;58.60;100646.16;4983340;28;20204;-67
2023/09/10 10:53:14;;;;;;;11.82;8.40;;;;;;;29.53;58.33;100655.72;4982161;28;20211;-69
2023/09/10 10:55:42;;;;;;;13.52;8.35;;;;;;;29.53;58.32;100642.97;4987885;28;20212;-69
2023/09/10 10:58:08;;;;;;;11.40;7.70;;;;;;;29.62;59.11;100647.00;4986263;28;20208;-68
2023/09/10 11:00:35;;;;;;;19.35;9.02;;;;;;;29.69;59.12;100642.03;4986066;28;20201;-69
2023/09/10 11:03:13;;;;;;;11.40;7.93;;;;;;;29.87;57.49;100641.75;4983565;28;20612;-68
2023/09/10 11:05:52;;;;;;;12.23;8.48;;;;;;;29.85;56.05;100638.25;4990784;28;20232;-70
2023/09/10 11:08:38;;;;;;;17.52;8.70;;;;;;;29.99;57.46;100637.34;4985572;28;20740;-72
2023/09/10 11:11:10;;;;;;;14.63;8.10;;;;;;;30.09;56.85;100624.94;4981609;28;20201;-73